Time;durP1;ratioP1;P1;durP2;ratioP2;P2;SDS_P1;SDS_P2;PMS_P1;PMS_P2;Temp;Humidity;BMP_temperature;BMP_pressure;BME280_temperature;BME280_humidity;BME280_pressure;Samples;Min_cycle;Max_cycle;Signal;HPM_P1;HPM_P2
2022/07/07 00:01:32;;;;;;;14.98;12.20;;;;;;;20.46;75.67;99051.22;5087029;27;20035;-73
2022/07/07 00:03:57;;;;;;;17.88;13.52;;;;;;;20.63;74.55;99047.31;5070418;27;20037;-72
2022/07/07 00:06:22;;;;;;;19.52;14.07;;;;;;;20.78;74.18;99047.28;5089315;27;20567;-73
2022/07/07 00:08:47;;;;;;;17.52;13.80;;;;;;;20.80;73.69;99037.09;5103751;27;20902;-71
2022/07/07 00:11:13;;;;;;;16.50;13.43;;;;;;;20.86;73.17;99047.19;5108895;27;20089;-73
2022/07/07 00:13:38;;;;;;;16.15;12.52;;;;;;;20.88;73.25;99034.31;5092186;27;20034;-70
2022/07/07 00:16:03;;;;;;;19.63;13.10;;;;;;;20.96;72.85;99045.03;5089797;27;20131;-71
2022/07/07 00:18:28;;;;;;;18.98;13.85;;;;;;;21.03;72.53;99045.91;5071818;27;20046;-74
2022/07/07 00:20:53;;;;;;;20.15;13.57;;;;;;;21.08;72.48;99034.53;5090039;27;20548;-72
2022/07/07 00:23:18;;;;;;;17.45;13.55;;;;;;;21.09;72.09;99039.75;5087106;27;20061;-72
2022/07/07 00:25:42;;;;;;;20.90;13.27;;;;;;;21.29;71.50;99040.00;5072022;27;20081;-71
2022/07/07 00:28:07;;;;;;;17.23;12.90;;;;;;;21.29;71.18;99040.84;5072725;28;20059;-71
2022/07/07 00:30:32;;;;;;;17.08;14.23;;;;;;;21.34;70.69;99034.81;5088248;27;20125;-70
2022/07/07 00:32:57;;;;;;;15.43;12.70;;;;;;;21.42;70.83;99045.56;5053913;27;20521;-75
2022/07/07 00:35:21;;;;;;;15.82;12.85;;;;;;;21.54;70.08;99052.16;5088073;27;20134;-71
2022/07/07 00:37:46;;;;;;;17.25;12.75;;;;;;;21.59;69.87;99046.13;5084518;27;20132;-71
2022/07/07 00:40:11;;;;;;;19.73;13.50;;;;;;;21.58;69.76;99048.00;5093298;27;20035;-72
2022/07/07 00:42:36;;;;;;;17.25;12.43;;;;;;;21.62;69.45;99037.59;5101608;27;20066;-72
2022/07/07 00:45:01;;;;;;;15.05;12.90;;;;;;;21.62;69.55;99038.44;5095644;27;20096;-73
2022/07/07 00:47:30;;;;;;;15.18;12.73;;;;;;;21.63;69.36;99044.72;5082475;27;20119;-73
2022/07/07 00:49:55;;;;;;;16.88;12.98;;;;;;;21.69;69.12;99043.91;5085880;27;20035;-72
2022/07/07 00:52:20;;;;;;;17.02;13.65;;;;;;;21.69;68.98;99033.06;5068940;28;20058;-73
2022/07/07 00:54:57;;;;;;;18.00;12.77;;;;;;;21.79;69.16;99043.56;5086581;27;20141;-77
2022/07/07 00:57:24;;;;;;;16.52;12.90;;;;;;;21.81;68.43;99036.91;5085444;27;20039;-74
2022/07/07 00:59:49;;;;;;;17.83;13.02;;;;;;;21.81;68.38;99036.09;5082456;27;20043;-75
2022/07/07 01:02:14;;;;;;;18.20;12.65;;;;;;;21.80;68.47;99035.25;5083770;27;20043;-73
2022/07/07 01:04:39;;;;;;;17.98;14.00;;;;;;;21.77;68.39;99040.25;5082285;27;20183;-70
2022/07/07 01:07:04;;;;;;;18.75;14.20;;;;;;;21.72;68.76;99047.09;5087009;27;20072;-70
2022/07/07 01:09:29;;;;;;;13.90;12.43;;;;;;;21.73;68.63;99045.22;5083537;27;20105;-72
2022/07/07 01:11:56;;;;;;;15.68;14.07;;;;;;;21.69;68.75;99043.91;5087449;27;20047;-75
2022/07/07 01:14:22;;;;;;;17.17;13.38;;;;;;;21.74;68.53;99046.91;5076765;28;20160;-76
2022/07/07 01:16:48;;;;;;;18.83;13.52;;;;;;;21.69;68.01;99041.19;5088337;27;20135;-76
2022/07/07 01:19:13;;;;;;;18.08;13.20;;;;;;;21.64;67.62;99041.81;5059524;28;20051;-76
2022/07/07 01:22:00;;;;;;;20.42;15.00;;;;;;;21.66;69.10;99047.03;5093810;27;20056;-75
2022/07/07 01:24:27;;;;;;;19.45;13.32;;;;;;;21.69;68.97;99043.91;5087885;28;20058;-74
2022/07/07 01:27:14;;;;;;;23.65;14.23;;;;;;;21.69;68.78;99046.63;5084836;27;20039;-77
2022/07/07 01:29:45;;;;;;;16.67;13.43;;;;;;;21.73;68.51;99043.34;5074954;28;20049;-71
2022/07/07 01:32:10;;;;;;;18.25;13.13;;;;;;;21.69;68.54;99041.19;5085567;28;20043;-78
2022/07/07 01:34:36;;;;;;;17.30;13.15;;;;;;;21.67;68.52;99037.88;5088201;27;20383;-77
2022/07/07 01:37:01;;;;;;;15.18;12.50;;;;;;;21.68;68.44;99036.81;5084343;28;20075;-71
2022/07/07 01:39:26;;;;;;;18.65;13.45;;;;;;;21.67;68.53;99035.16;5082985;27;20070;-73
2022/07/07 01:41:51;;;;;;;20.65;14.35;;;;;;;21.65;68.49;99037.22;5072280;27;20062;-76
2022/07/07 01:44:15;;;;;;;15.48;13.40;;;;;;;21.61;68.65;99041.34;5089270;27;20038;-74
2022/07/07 01:46:40;;;;;;;17.90;12.80;;;;;;;21.62;68.77;99043.03;5088727;27;20035;-71
2022/07/07 01:49:05;;;;;;;17.20;13.80;;;;;;;21.70;68.32;99032.03;5087303;27;20032;-72
2022/07/07 01:51:29;;;;;;;20.33;14.65;;;;;;;21.71;68.20;99037.25;5086892;27;20513;-70
2022/07/07 01:53:54;;;;;;;20.02;14.80;;;;;;;21.64;68.69;99030.13;5086033;27;20046;-70
2022/07/07 01:56:19;;;;;;;21.77;14.57;;;;;;;21.62;68.54;99032.19;5066077;28;20045;-72
2022/07/07 01:58:44;;;;;;;21.70;13.95;;;;;;;21.68;68.44;99032.22;5084732;28;20048;-77
2022/07/07 02:01:11;;;;;;;17.30;12.63;;;;;;;21.71;68.17;99034.56;5080375;28;20452;-73
2022/07/07 02:03:36;;;;;;;16.60;13.43;;;;;;;21.70;68.34;99034.75;5077985;28;20190;-74
2022/07/07 02:06:00;;;;;;;18.52;14.02;;;;;;;21.66;68.40;99028.06;5078645;28;20043;-74
2022/07/07 02:08:25;;;;;;;16.42;13.18;;;;;;;21.72;68.17;99032.69;5078734;27;20039;-74
2022/07/07 02:13:33;;;;;;;15.95;12.88;;;;;;;21.74;68.18;99033.31;5077542;28;20039;-72
2022/07/07 02:16:22;;;;;;;;;;;;;;;21.90;67.52;99038.44;5078549;28;20171;-71
2022/07/07 02:18:48;;;;;;;17.83;13.32;;;;;;;21.74;68.10;99031.47;5094716;27;19923;-69
2022/07/07 02:21:15;;;;;;;17.35;13.13;;;;;;;21.71;68.25;99033.72;5081398;27;20039;-68
2022/07/07 02:23:43;;;;;;;15.82;12.40;;;;;;;21.76;68.14;99030.41;5119355;27;20042;-70
2022/07/07 02:26:07;;;;;;;18.55;13.32;;;;;;;21.81;67.74;99036.91;5119019;27;20042;-67
2022/07/07 02:28:32;;;;;;;18.25;12.95;;;;;;;21.82;67.67;99041.31;5119101;27;20042;-70
2022/07/07 02:30:58;;;;;;;17.48;13.43;;;;;;;21.78;67.98;99040.06;5109459;27;20039;-73
2022/07/07 02:33:23;;;;;;;15.43;13.25;;;;;;;21.74;68.25;99049.59;5079866;27;20031;-70
2022/07/07 02:35:48;;;;;;;15.63;13.63;;;;;;;21.71;68.38;99042.69;5080290;27;20417;-70
2022/07/07 02:38:14;;;;;;;17.80;13.45;;;;;;;21.74;67.96;99047.72;5062649;27;20486;-70
2022/07/07 02:40:38;;;;;;;16.42;13.27;;;;;;;21.85;67.78;99050.94;5098579;27;20047;-69
2022/07/07 02:43:03;;;;;;;17.02;13.20;;;;;;;21.85;67.41;99054.50;5098885;27;20042;-73
2022/07/07 02:45:28;;;;;;;16.48;12.45;;;;;;;21.89;67.58;99055.81;5098296;27;20043;-70
2022/07/07 02:47:53;;;;;;;20.50;13.45;;;;;;;21.92;67.52;99049.13;5088299;27;20035;-69
2022/07/07 02:50:18;;;;;;;15.60;13.63;;;;;;;21.99;67.41;99045.47;5089302;27;20106;-70
2022/07/07 02:52:43;;;;;;;16.27;13.43;;;;;;;22.05;67.36;99054.69;5103507;27;20532;-77
2022/07/07 02:55:08;;;;;;;19.60;13.98;;;;;;;22.16;66.77;99062.28;5083059;27;20080;-68
2022/07/07 02:57:33;;;;;;;18.48;13.65;;;;;;;22.21;66.63;99059.81;5098948;27;20096;-77
2022/07/07 02:59:58;;;;;;;16.60;13.95;;;;;;;22.37;66.48;99056.78;5062474;27;20077;-69
2022/07/07 03:02:23;;;;;;;17.05;13.60;;;;;;;22.53;65.90;99058.34;5097253;27;20062;-67
2022/07/07 03:04:48;;;;;;;16.73;13.20;;;;;;;22.59;65.62;99062.13;5078982;27;20050;-68
2022/07/07 03:07:13;;;;;;;20.48;15.05;;;;;;;22.71;64.85;99053.22;5097755;27;20833;-69
2022/07/07 03:09:37;;;;;;;19.52;13.85;;;;;;;22.74;64.91;99055.53;5079565;27;20046;-68
2022/07/07 03:12:03;;;;;;;16.88;13.73;;;;;;;22.77;64.84;99055.19;5100452;27;21181;-69
2022/07/07 03:14:27;;;;;;;17.55;12.85;;;;;;;22.73;64.88;99062.00;5087120;27;20039;-69
2022/07/07 03:16:52;;;;;;;16.02;12.65;;;;;;;22.81;64.70;99064.59;5106758;27;20035;-70
2022/07/07 03:19:17;;;;;;;20.20;13.90;;;;;;;22.75;64.28;99073.56;5110160;27;20046;-72
2022/07/07 03:21:41;;;;;;;17.63;14.60;;;;;;;22.74;64.42;99076.44;5111552;27;20042;-68
2022/07/07 03:24:06;;;;;;;16.20;13.23;;;;;;;22.78;63.91;99080.47;5105895;27;20042;-70
2022/07/07 03:26:31;;;;;;;18.00;12.65;;;;;;;22.92;65.03;99068.59;5086676;27;20038;-71
2022/07/07 03:28:56;;;;;;;16.08;13.05;;;;;;;23.00;65.06;99067.59;5072489;27;20042;-69
2022/07/07 03:31:21;;;;;;;15.65;13.50;;;;;;;23.05;65.01;99067.81;5076243;27;20038;-70
2022/07/07 03:33:45;;;;;;;16.10;12.50;;;;;;;23.14;64.54;99072.03;5111329;27;20039;-68
2022/07/07 03:36:10;;;;;;;19.45;13.82;;;;;;;23.23;63.96;99065.38;5108236;27;20473;-69
2022/07/07 03:38:35;;;;;;;17.42;12.02;;;;;;;23.27;63.71;99073.97;5105654;27;20554;-69
2022/07/07 03:41:00;;;;;;;15.63;12.77;;;;;;;23.37;63.76;99067.06;5072639;27;20562;-68
2022/07/07 03:43:25;;;;;;;17.02;11.60;;;;;;;23.50;63.25;99069.88;5087881;27;20037;-69
2022/07/07 03:45:50;;;;;;;14.02;12.30;;;;;;;23.55;62.36;99062.97;5107163;27;20050;-68
2022/07/07 03:48:15;;;;;;;18.38;12.63;;;;;;;23.38;62.96;99068.75;5108946;27;20042;-77
2022/07/07 03:50:40;;;;;;;16.73;12.38;;;;;;;23.39;63.10;99073.16;5098924;27;20045;-68
2022/07/07 03:53:05;;;;;;;17.83;13.20;;;;;;;23.37;63.10;99066.25;5116929;27;20446;-69
2022/07/07 03:55:29;;;;;;;16.92;13.20;;;;;;;23.49;62.80;99064.59;5120214;27;20508;-67
2022/07/07 03:57:54;;;;;;;18.05;12.95;;;;;;;23.50;63.03;99056.25;5101685;27;20027;-68
2022/07/07 04:00:19;;;;;;;19.35;13.32;;;;;;;23.50;62.84;99058.97;5120833;27;20046;-69
2022/07/07 04:02:44;;;;;;;18.83;13.32;;;;;;;23.55;62.57;99062.97;5119117;27;20078;-68
2022/07/07 04:05:08;;;;;;;17.60;12.98;;;;;;;23.69;62.66;99057.34;5119741;27;20408;-68
2022/07/07 04:07:33;;;;;;;14.95;12.43;;;;;;;23.81;61.88;99055.69;5082591;27;20518;-68
2022/07/07 04:09:59;;;;;;;19.45;12.55;;;;;;;24.00;61.43;99058.59;5117552;27;20034;-68
2022/07/07 04:12:24;;;;;;;17.05;13.88;;;;;;;24.12;60.92;99055.03;5117207;27;20050;-69
2022/07/07 04:14:48;;;;;;;15.25;12.13;;;;;;;24.22;60.71;99060.09;5116871;27;20039;-69
2022/07/07 04:17:13;;;;;;;18.33;13.32;;;;;;;24.30;60.84;99051.69;5116573;27;20412;-68
2022/07/07 04:19:39;;;;;;;19.70;12.93;;;;;;;24.32;61.04;99065.09;5098467;27;20497;-68
2022/07/07 04:22:04;;;;;;;16.77;12.63;;;;;;;24.34;60.88;99052.13;5098494;27;20042;-69
2022/07/07 04:24:29;;;;;;;16.10;12.30;;;;;;;24.39;60.45;99049.56;5098385;27;20050;-68
2022/07/07 04:26:53;;;;;;;17.70;13.27;;;;;;;24.46;60.10;99058.59;5098169;27;20038;-69
2022/07/07 04:29:18;;;;;;;15.63;13.10;;;;;;;24.53;60.15;99067.56;5098378;27;20030;-69
2022/07/07 04:31:44;;;;;;;17.95;12.48;;;;;;;24.58;60.08;99062.34;5064053;27;20458;-69
2022/07/07 04:34:09;;;;;;;15.60;13.40;;;;;;;24.54;60.52;99061.91;5098433;27;20451;-69
2022/07/07 04:36:34;;;;;;;26.30;13.93;;;;;;;24.67;60.14;99052.88;5116683;27;20642;-69
2022/07/07 04:38:58;;;;;;;16.10;12.68;;;;;;;24.86;59.64;99046.50;5116465;27;20446;-67
2022/07/07 04:41:23;;;;;;;16.33;13.02;;;;;;;24.90;59.39;99044.19;5116368;27;20095;-68
2022/07/07 04:43:48;;;;;;;15.63;12.45;;;;;;;24.90;59.29;99052.38;5116233;27;20538;-66
2022/07/07 04:46:13;;;;;;;15.63;13.50;;;;;;;24.94;59.65;99046.28;5116450;27;20437;-68
2022/07/07 04:48:37;;;;;;;14.30;12.45;;;;;;;25.18;58.36;99041.97;5098049;27;20047;-67
2022/07/07 04:51:02;;;;;;;13.45;12.00;;;;;;;25.29;58.01;99041.28;5116394;27;20041;-68
2022/07/07 04:53:27;;;;;;;16.23;12.50;;;;;;;25.33;57.88;99044.41;5116604;27;20077;-67
2022/07/07 04:55:52;;;;;;;14.90;12.05;;;;;;;25.42;57.56;99051.28;5097729;27;20539;-67
2022/07/07 04:58:16;;;;;;;19.13;13.52;;;;;;;25.55;57.24;99045.75;5098176;27;20501;-69
2022/07/07 05:00:41;;;;;;;17.08;13.75;;;;;;;25.78;56.75;99041.63;5099493;27;20098;-68
2022/07/07 05:03:06;;;;;;;16.08;12.52;;;;;;;25.94;55.99;99038.34;5078230;27;20043;-69
2022/07/07 05:05:31;;;;;;;15.52;11.80;;;;;;;26.22;55.31;99046.91;5095942;27;20129;-68
2022/07/07 05:07:56;;;;;;;15.25;12.38;;;;;;;26.60;54.50;99051.38;5095883;27;20401;-67
2022/07/07 05:10:20;;;;;;;14.82;12.27;;;;;;;26.83;53.60;99054.28;5076853;28;20051;-68
2022/07/07 05:12:45;;;;;;;17.23;12.48;;;;;;;27.03;52.89;99052.16;5095594;27;20042;-67
2022/07/07 05:15:11;;;;;;;14.85;12.30;;;;;;;26.95;52.78;99047.00;5095410;27;20051;-69
2022/07/07 05:17:36;;;;;;;13.43;11.25;;;;;;;26.74;53.38;99055.66;5095388;27;20051;-67
2022/07/07 05:20:03;;;;;;;15.55;12.40;;;;;;;26.64;53.45;99047.13;5060607;28;20050;-67
2022/07/07 05:22:27;;;;;;;17.08;13.23;;;;;;;26.71;54.13;99058.84;5076895;28;20509;-68
2022/07/07 05:24:52;;;;;;;18.05;13.02;;;;;;;26.93;52.79;99053.78;5077158;28;20498;-67
2022/07/07 05:27:17;;;;;;;21.27;13.02;;;;;;;27.11;52.73;99046.38;5095520;27;20042;-67
2022/07/07 05:29:41;;;;;;;16.40;12.85;;;;;;;27.11;52.90;99037.31;5077403;28;20124;-67
2022/07/07 05:32:06;;;;;;;15.05;12.32;;;;;;;27.16;52.69;99047.59;5095607;27;20039;-68
2022/07/07 05:34:31;;;;;;;19.88;13.35;;;;;;;27.13;52.25;99043.41;5095334;28;20039;-65
2022/07/07 05:36:56;;;;;;;14.65;12.95;;;;;;;27.11;52.37;99046.38;5095545;28;20031;-67
2022/07/07 05:39:21;;;;;;;18.02;13.10;;;;;;;27.17;52.95;99054.72;5098411;28;20063;-66
2022/07/07 05:41:46;;;;;;;15.68;11.65;;;;;;;27.23;52.67;99049.16;5079033;28;20404;-66
2022/07/07 05:44:10;;;;;;;15.38;12.55;;;;;;;27.31;52.17;99048.00;5095014;28;20077;-66
2022/07/07 05:46:35;;;;;;;19.17;12.35;;;;;;;27.46;51.91;99043.78;5076410;28;20035;-66
2022/07/07 05:49:00;;;;;;;16.25;11.13;;;;;;;27.54;51.42;99044.53;5095146;28;20054;-69
2022/07/07 05:51:25;;;;;;;14.32;12.02;;;;;;;27.40;51.73;99038.41;5095339;27;20033;-69
2022/07/07 05:53:49;;;;;;;19.10;13.07;;;;;;;27.34;52.24;99036.56;5095275;27;20046;-70
2022/07/07 05:56:14;;;;;;;14.10;11.65;;;;;;;27.54;51.88;99031.63;5095326;27;20070;-69
2022/07/07 05:58:40;;;;;;;15.18;11.43;;;;;;;27.89;50.06;99030.91;5095221;28;20031;-69
2022/07/07 06:01:04;;;;;;;18.17;12.20;;;;;;;28.14;49.51;99031.53;5095241;28;20047;-68
2022/07/07 06:03:29;;;;;;;15.48;11.13;;;;;;;28.60;48.69;99033.44;5095164;27;20229;-68
2022/07/07 06:05:54;;;;;;;13.60;11.30;;;;;;;29.05;47.33;99032.78;5076690;28;20542;-70
2022/07/07 06:08:19;;;;;;;14.45;11.52;;;;;;;29.64;46.70;99034.22;5095527;28;20485;-70
2022/07/07 06:10:44;;;;;;;14.18;10.30;;;;;;;30.14;45.05;99033.41;5096377;28;20512;-68
2022/07/07 06:13:08;;;;;;;13.18;11.55;;;;;;;30.65;42.81;99024.88;5097146;27;20413;-68
2022/07/07 06:15:33;;;;;;;12.88;11.23;;;;;;;31.11;41.76;99032.91;5098157;27;20037;-69
2022/07/07 06:18:02;;;;;;;12.40;10.82;;;;;;;31.31;40.85;99033.13;5098425;28;20422;-69
2022/07/07 06:20:27;;;;;;;12.73;10.32;;;;;;;31.73;39.91;99025.84;5066157;28;20083;-71
2022/07/07 06:22:52;;;;;;;13.02;11.05;;;;;;;32.18;38.89;99032.03;5082546;28;20039;-69
2022/07/07 06:25:18;;;;;;;17.75;11.68;;;;;;;32.53;37.83;99028.66;5100537;27;20054;-69
2022/07/07 06:27:42;;;;;;;13.70;11.00;;;;;;;32.87;37.17;99021.69;5100378;27;20039;-69
2022/07/07 06:30:08;;;;;;;15.15;10.38;;;;;;;33.33;36.23;99021.88;5084317;27;20047;-69
2022/07/07 06:32:32;;;;;;;12.10;10.80;;;;;;;33.72;35.39;99025.00;5081025;27;20075;-69
2022/07/07 06:34:57;;;;;;;13.45;10.70;;;;;;;33.99;34.55;99025.56;5080554;27;20119;-69
2022/07/07 06:37:22;;;;;;;11.07;9.95;;;;;;;34.12;34.55;99030.56;5101695;27;20063;-68
2022/07/07 06:39:47;;;;;;;13.45;9.68;;;;;;;34.28;34.50;99031.41;5102965;27;20505;-68
2022/07/07 06:42:11;;;;;;;13.45;10.98;;;;;;;34.58;34.24;99034.09;5105564;27;20068;-68
2022/07/07 06:44:40;;;;;;;12.75;11.32;;;;;;;34.39;34.11;99032.22;5104859;27;20039;-68
2022/07/07 06:47:05;;;;;;;14.52;11.55;;;;;;;34.70;33.63;99032.97;5082974;27;20039;-68
2022/07/07 06:49:30;;;;;;;15.13;11.80;;;;;;;35.45;33.08;99036.53;5101583;27;20130;-69
2022/07/07 06:51:55;;;;;;;13.95;11.35;;;;;;;35.78;32.18;99037.78;5082157;27;20103;-69
2022/07/07 06:54:20;;;;;;;11.73;10.43;;;;;;;35.62;32.13;99037.84;5099354;27;20512;-71
2022/07/07 06:56:46;;;;;;;12.75;11.10;;;;;;;35.96;32.45;99042.59;5100482;27;20099;-68
2022/07/07 06:59:10;;;;;;;13.23;10.75;;;;;;;36.33;32.19;99037.31;5099970;27;20130;-67
2022/07/07 07:01:35;;;;;;;13.25;11.95;;;;;;;36.94;31.07;99025.53;5100796;27;20074;-67
2022/07/07 07:04:00;;;;;;;13.27;11.18;;;;;;;37.70;29.96;99021.72;5100701;27;20069;-71
2022/07/07 07:06:25;;;;;;;14.13;11.82;;;;;;;38.10;29.21;99031.41;5098430;27;20047;-66
2022/07/07 07:08:50;;;;;;;13.63;12.15;;;;;;;38.61;28.23;99024.06;5098134;27;20070;-67
2022/07/07 07:11:15;;;;;;;13.68;12.27;;;;;;;38.72;27.38;99090.44;5079521;27;20070;-67
2022/07/07 07:13:40;;;;;;;12.75;10.32;;;;;;;39.02;26.66;99124.47;5097931;27;20043;-67
2022/07/07 07:16:05;;;;;;;12.57;11.13;;;;;;;38.53;27.54;99116.72;5079330;27;20039;-66
2022/07/07 07:18:29;;;;;;;13.43;11.75;;;;;;;38.44;26.58;99097.91;5097234;27;20043;-67
2022/07/07 07:20:54;;;;;;;18.25;13.23;;;;;;;38.53;26.78;99088.88;5062973;27;20034;-68
2022/07/07 07:23:19;;;;;;;21.70;12.55;;;;;;;39.01;26.28;99025.25;5098844;27;20489;-69
2022/07/07 07:25:44;;;;;;;22.33;12.02;;;;;;;39.61;25.68;99028.69;5099224;27;20046;-69
2022/07/07 07:28:08;;;;;;;14.90;12.38;;;;;;;40.46;24.32;99032.41;5098664;27;20439;-67
2022/07/07 07:30:33;;;;;;;14.15;12.75;;;;;;;40.53;24.69;99036.41;5094330;27;20408;-68
2022/07/07 07:32:58;;;;;;;16.08;12.98;;;;;;;39.79;25.80;99019.28;5119316;27;20126;-68
2022/07/07 07:35:23;;;;;;;13.73;12.43;;;;;;;38.92;26.20;99024.31;5119759;27;20046;-68
2022/07/07 07:37:47;;;;;;;16.65;13.23;;;;;;;37.74;27.76;99033.91;5119516;27;20049;-66
2022/07/07 07:40:12;;;;;;;19.23;15.52;;;;;;;37.55;29.14;99026.69;5118692;27;20101;-70
2022/07/07 07:42:38;;;;;;;22.60;13.13;;;;;;;37.53;28.25;99035.31;5100595;27;20049;-67
2022/07/07 07:45:11;;;;;;;15.15;13.55;;;;;;;37.38;29.26;99043.88;5118356;27;20046;-66
2022/07/07 07:47:41;;;;;;;14.32;12.25;;;;;;;37.21;28.93;99032.44;5130801;27;20049;-67
2022/07/07 07:50:07;;;;;;;13.55;11.75;;;;;;;38.39;27.20;99038.66;5141580;27;20046;-67
2022/07/07 07:52:32;;;;;;;12.68;11.52;;;;;;;38.76;26.99;99040.50;5138598;27;20042;-66
2022/07/07 07:54:57;;;;;;;17.92;12.93;;;;;;;39.39;26.40;99039.78;5139328;27;20044;-67
2022/07/07 07:57:22;;;;;;;14.80;12.48;;;;;;;39.17;24.81;99037.72;5138146;27;20068;-69
2022/07/07 07:59:47;;;;;;;14.80;13.40;;;;;;;39.38;25.31;99049.28;5141840;27;20034;-69
2022/07/07 08:02:12;;;;;;;15.43;13.77;;;;;;;39.65;25.51;99053.97;5147899;27;20038;-68
2022/07/07 08:04:39;;;;;;;14.25;12.80;;;;;;;38.88;25.07;99035.25;5124171;27;20038;-69
2022/07/07 08:07:04;;;;;;;15.25;13.20;;;;;;;37.07;28.19;99033.16;5107755;27;20034;-68
2022/07/07 08:09:30;;;;;;;15.05;11.82;;;;;;;35.57;30.19;99037.03;5139643;27;20038;-68
2022/07/07 08:11:55;;;;;;;15.63;13.60;;;;;;;34.50;31.63;99037.47;5140628;27;20111;-70
2022/07/07 08:14:20;;;;;;;14.63;13.18;;;;;;;34.72;31.65;99039.88;5142239;27;20073;-70
2022/07/07 08:16:45;;;;;;;17.25;12.85;;;;;;;34.69;33.60;99047.91;5140091;27;20034;-68
2022/07/07 08:19:10;;;;;;;13.63;12.23;;;;;;;35.30;31.03;99051.34;5120952;27;20057;-68
2022/07/07 08:21:34;;;;;;;18.98;14.05;;;;;;;35.53;31.39;99061.75;5121006;27;20045;-67
2022/07/07 08:23:59;;;;;;;20.48;17.40;;;;;;;36.72;29.74;99058.56;5103283;27;20073;-68
2022/07/07 08:26:25;;;;;;;20.85;14.63;;;;;;;37.58;28.37;99063.06;5122982;27;20185;-69
2022/07/07 08:28:50;;;;;;;16.05;13.85;;;;;;;38.10;27.18;99061.19;5122621;27;20049;-70
2022/07/07 08:31:15;;;;;;;16.58;13.95;;;;;;;37.77;27.79;99058.34;5140043;27;20043;-68
2022/07/07 08:33:40;;;;;;;16.38;14.48;;;;;;;37.24;28.73;99059.66;5143611;27;20520;-68
2022/07/07 08:36:05;;;;;;;16.73;12.85;;;;;;;37.30;28.98;99055.66;5141047;27;20389;-72
2022/07/07 08:38:30;;;;;;;14.93;13.10;;;;;;;37.96;27.75;99046.34;5137934;27;20049;-69
2022/07/07 08:40:55;;;;;;;13.57;12.15;;;;;;;37.49;28.58;99047.34;5137718;27;20037;-66
2022/07/07 08:43:20;;;;;;;15.73;13.18;;;;;;;36.56;29.51;99057.06;5118768;27;20575;-69
2022/07/07 08:45:47;;;;;;;15.35;13.32;;;;;;;35.29;32.24;99052.47;5137695;27;20038;-68
2022/07/07 08:48:12;;;;;;;17.17;15.32;;;;;;;34.23;34.17;99053.50;5139131;27;20095;-67
2022/07/07 08:50:38;;;;;;;25.70;18.75;;;;;;;33.61;36.97;99054.56;5120984;27;20105;-67
2022/07/07 08:53:07;;;;;;;16.20;14.25;;;;;;;33.76;36.16;99057.38;5141170;27;20038;-67
2022/07/07 08:55:34;;;;;;;15.60;13.88;;;;;;;33.75;34.98;99057.66;5123365;27;20110;-68
2022/07/07 08:57:59;;;;;;;20.77;13.75;;;;;;;34.09;34.16;99052.41;5138784;27;20073;-66
2022/07/07 09:00:24;;;;;;;15.70;13.25;;;;;;;34.65;33.32;99044.06;5137287;27;20066;-68
2022/07/07 09:02:49;;;;;;;16.15;13.60;;;;;;;35.05;33.42;99037.56;5137319;27;20069;-67
2022/07/07 09:05:15;;;;;;;16.02;13.23;;;;;;;35.49;32.23;99048.72;5136877;27;20038;-67
2022/07/07 09:07:59;;;;;;;15.27;13.10;;;;;;;35.63;33.27;99050.59;5138617;27;20032;-69
2022/07/07 09:10:32;;;;;;;16.40;14.35;;;;;;;35.11;31.97;99047.50;5125103;27;20046;-67
2022/07/07 09:12:58;;;;;;;17.23;14.10;;;;;;;35.13;32.94;99050.84;5143673;27;20101;-69
2022/07/07 09:15:24;;;;;;;15.30;13.68;;;;;;;35.15;32.99;99054.16;5125001;27;20052;-68
2022/07/07 09:17:50;;;;;;;16.77;12.32;;;;;;;35.44;32.50;99048.78;5145169;27;20042;-67
2022/07/07 09:20:15;;;;;;;15.57;13.68;;;;;;;36.14;30.86;99055.75;5144935;27;20500;-68
2022/07/07 09:23:00;;;;;;;17.73;14.15;;;;;;;36.26;29.99;99052.63;5144402;27;20050;-67
2022/07/07 09:25:27;;;;;;;13.88;12.48;;;;;;;35.53;31.54;99056.19;5143683;27;20050;-66
2022/07/07 09:28:06;;;;;;;17.67;13.50;;;;;;;35.18;32.19;99053.59;5142168;27;20069;-66
2022/07/07 09:30:43;;;;;;;15.27;13.05;;;;;;;34.64;33.61;99059.84;5142725;27;20488;-66
2022/07/07 09:33:14;;;;;;;14.25;12.68;;;;;;;33.85;34.39;99052.97;5139901;27;20117;-67
2022/07/07 09:38:27;;;;;;;12.73;11.38;;;;;;;32.23;36.62;99045.88;5136749;27;20046;-67
2022/07/07 09:41:05;;;;;;;15.25;12.32;;;;;;;33.01;36.38;99046.91;5136869;27;20094;-67
2022/07/07 09:43:35;;;;;;;12.77;11.30;;;;;;;34.67;33.44;99050.97;5136525;27;20125;-69
2022/07/07 09:46:17;;;;;;;12.98;11.68;;;;;;;36.06;31.40;99055.56;5136598;27;20042;-69
2022/07/07 09:48:52;;;;;;;13.68;12.10;;;;;;;36.94;29.61;99050.53;5118077;27;20042;-68
2022/07/07 09:51:28;;;;;;;14.68;12.60;;;;;;;38.03;28.72;99053.22;5117820;27;20061;-69
2022/07/07 09:54:08;;;;;;;13.77;12.38;;;;;;;38.30;27.39;99062.78;5136663;27;20504;-69
2022/07/07 09:56:39;;;;;;;20.58;17.27;;;;;;;37.79;28.01;99058.06;5118865;27;20500;-69
2022/07/07 09:59:06;;;;;;;15.98;13.18;;;;;;;37.49;28.51;99052.91;5121190;27;20121;-69
2022/07/07 10:01:34;;;;;;;14.23;12.93;;;;;;;37.79;28.51;99063.63;5138292;27;20423;-67
2022/07/07 10:04:02;;;;;;;18.13;13.40;;;;;;;37.57;29.04;99063.38;5141043;27;20575;-70
2022/07/07 10:06:31;;;;;;;16.40;13.60;;;;;;;37.18;29.42;99069.19;5142226;27;20547;-70
2022/07/07 10:08:58;;;;;;;16.50;13.00;;;;;;;36.32;31.11;99068.13;5104422;27;20511;-69
2022/07/07 10:11:28;;;;;;;16.33;14.52;;;;;;;36.23;31.80;99069.88;5121537;27;20129;-70
2022/07/07 10:13:56;;;;;;;15.75;13.80;;;;;;;37.12;30.23;99073.13;5121648;27;20038;-70
2022/07/07 10:16:21;;;;;;;18.48;13.68;;;;;;;37.69;29.08;99064.59;5140235;27;20049;-70
2022/07/07 10:18:47;;;;;;;19.55;13.45;;;;;;;37.63;28.98;99060.22;5140316;27;20054;-70
2022/07/07 10:21:13;;;;;;;14.93;12.50;;;;;;;37.13;29.90;99067.28;5141050;27;20045;-71
2022/07/07 10:23:38;;;;;;;16.65;14.02;;;;;;;36.70;30.90;99058.03;5122252;27;20500;-70
2022/07/07 10:26:04;;;;;;;18.15;14.25;;;;;;;35.60;32.79;99062.25;5141203;27;20465;-71
2022/07/07 10:28:53;;;;;;;19.25;13.68;;;;;;;35.09;33.30;99067.22;5140622;27;20580;-71
2022/07/07 10:31:26;;;;;;;17.35;13.68;;;;;;;34.02;34.65;99062.94;5135975;27;20101;-70
2022/07/07 10:34:00;;;;;;;17.58;15.10;;;;;;;33.60;36.44;99060.38;5099371;27;20043;-71
2022/07/07 10:36:25;;;;;;;16.38;14.68;;;;;;;33.32;36.53;99054.22;5099392;27;20511;-70
2022/07/07 10:38:52;;;;;;;19.85;14.57;;;;;;;33.30;36.86;99064.69;5098790;27;20046;-71
2022/07/07 10:41:26;;;;;;;15.32;12.40;;;;;;;32.91;36.68;99057.91;5099113;27;20054;-70
2022/07/07 10:44:04;;;;;;;15.93;14.23;;;;;;;32.10;38.01;99060.91;5103089;27;20072;-69
2022/07/07 10:46:29;;;;;;;16.42;13.40;;;;;;;31.13;40.18;99044.50;5101856;27;20050;-71
2022/07/07 10:49:12;;;;;;;14.93;13.32;;;;;;;31.32;39.95;99056.81;5100481;27;20047;-71
2022/07/07 10:51:54;;;;;;;16.40;13.52;;;;;;;31.89;39.11;99056.31;5097703;27;20088;-70
2022/07/07 10:54:36;;;;;;;20.70;14.02;;;;;;;32.08;37.98;99049.31;5099117;27;20046;-69
2022/07/07 10:57:01;;;;;;;18.23;13.85;;;;;;;31.71;39.69;99050.09;5080415;27;20062;-70
2022/07/07 10:59:28;;;;;;;18.75;13.30;;;;;;;31.36;40.61;99057.97;5104799;27;20103;-70
2022/07/07 11:02:02;;;;;;;16.83;13.88;;;;;;;31.37;40.13;99048.63;5120638;27;20047;-70
2022/07/07 11:04:46;;;;;;;;;;;;;;;31.46;39.90;99047.06;5102298;27;20043;-69
2022/07/07 11:07:11;;;;;;;15.60;12.90;;;;;;;31.16;40.82;99053.03;5121352;27;20053;-73
2022/07/07 11:09:59;;;;;;;14.05;12.45;;;;;;;30.92;41.03;99051.63;5120922;27;20043;-69
2022/07/07 11:12:43;;;;;;;14.75;12.85;;;;;;;30.51;41.99;99050.19;5121670;27;20420;-68
2022/07/07 11:15:14;;;;;;;15.25;13.23;;;;;;;30.05;43.16;99041.25;5119669;27;20039;-69
2022/07/07 11:17:38;;;;;;;15.20;13.32;;;;;;;30.05;43.00;99040.41;5118510;27;20065;-70
2022/07/07 11:20:07;;;;;;;20.35;17.45;;;;;;;29.93;42.94;99048.72;5099699;27;20034;-71